createdAt,value
2019-02-15T00:00:26.987Z,12.03
2019-02-15T00:02:56.006Z,9.77
2019-02-15T00:05:24.342Z,11.17
2019-02-15T00:07:52.694Z,15.93
2019-02-15T00:10:21.137Z,11.83
2019-02-15T00:12:49.500Z,9.03
2019-02-15T00:15:17.913Z,9.97
2019-02-15T00:17:50.798Z,9.60
2019-02-15T00:20:23.977Z,11.30
2019-02-15T00:22:52.337Z,12.20
2019-02-15T00:25:20.669Z,11.10
2019-02-15T00:27:49.030Z,9.93
2019-02-15T00:30:17.374Z,9.33
2019-02-15T00:32:45.710Z,11.20
2019-02-15T00:35:14.066Z,9.77
2019-02-15T00:37:42.393Z,8.73
2019-02-15T00:40:10.757Z,11.10
2019-02-15T00:42:39.117Z,9.83
2019-02-15T00:45:08.949Z,9.90
2019-02-15T00:47:38.938Z,9.77
2019-02-15T00:50:09.272Z,8.97
2019-02-15T00:52:44.948Z,15.67
2019-02-15T00:55:24.086Z,11.17
2019-02-15T00:57:54.085Z,9.47
2019-02-15T01:00:27.046Z,10.13
2019-02-15T01:03:06.183Z,9.93
2019-02-15T01:05:41.862Z,10.70
2019-02-15T01:08:14.842Z,13.30
2019-02-15T01:10:44.885Z,10.20
2019-02-15T01:13:14.493Z,8.30
2019-02-15T01:15:42.885Z,9.90
2019-02-15T01:18:11.287Z,9.47
2019-02-15T01:20:39.625Z,11.07
2019-02-15T01:23:07.961Z,11.67
2019-02-15T01:25:37.933Z,11.53
2019-02-15T01:28:10.888Z,9.57
2019-02-15T01:30:43.568Z,10.33
2019-02-15T01:33:14.720Z,9.60
2019-02-15T01:35:44.699Z,10.40
2019-02-15T01:38:14.681Z,9.83
2019-02-15T01:40:53.656Z,12.30
2019-02-15T01:43:40.014Z,9.70
2019-02-15T01:46:07.543Z,8.97
2019-02-15T01:48:35.877Z,9.87
2019-02-15T01:51:04.211Z,10.30
2019-02-15T01:53:33.664Z,12.93
2019-02-15T01:56:01.999Z,12.67
2019-02-15T01:58:30.355Z,10.03
2019-02-15T02:00:58.708Z,10.27
2019-02-15T02:03:27.053Z,8.87
2019-02-15T02:05:55.389Z,9.17
2019-02-15T02:08:25.870Z,10.77
2019-02-15T02:10:54.270Z,9.63
2019-02-15T02:13:22.980Z,9.30
2019-02-15T02:15:51.310Z,12.80
2019-02-15T02:18:19.659Z,10.57
2019-02-15T02:20:48.008Z,9.60
2019-02-15T02:23:16.350Z,10.47
2019-02-15T02:25:44.695Z,9.73
2019-02-15T02:28:13.029Z,7.40
2019-02-15T02:30:41.361Z,9.73
2019-02-15T02:33:09.698Z,12.50
2019-02-15T02:35:38.355Z,10.03
2019-02-15T02:38:06.695Z,11.07
2019-02-15T02:40:35.033Z,10.57
2019-02-15T02:43:05.757Z,11.57
2019-02-15T02:45:34.159Z,9.83
2019-02-15T02:48:02.495Z,10.47
2019-02-15T02:50:30.831Z,10.37
2019-02-15T02:52:59.171Z,9.63
2019-02-15T02:55:27.520Z,8.57
2019-02-15T02:57:55.842Z,9.27
2019-02-15T03:00:33.212Z,11.73
2019-02-15T03:02:54.230Z,7.70
2019-02-15T03:05:22.597Z,10.07
2019-02-15T03:07:50.942Z,9.63
2019-02-15T03:10:19.646Z,8.20
2019-02-15T03:12:47.978Z,8.57
2019-02-15T03:15:16.315Z,9.03
2019-02-15T03:17:44.654Z,7.87
2019-02-15T03:20:12.978Z,8.73
2019-02-15T03:22:41.321Z,9.57
2019-02-15T03:25:09.646Z,6.47
2019-02-15T03:27:37.976Z,7.70
2019-02-15T03:30:07.986Z,9.30
2019-02-15T03:32:36.319Z,8.77
2019-02-15T03:35:06.231Z,12.10
2019-02-15T03:37:54.322Z,8.33
2019-02-15T03:40:27.251Z,9.53
2019-02-15T03:42:55.583Z,8.20
2019-02-15T03:45:23.920Z,8.17
2019-02-15T03:47:52.246Z,9.63
2019-02-15T03:50:20.589Z,7.77
2019-02-15T03:52:48.950Z,10.83
2019-02-15T03:55:17.256Z,8.30
2019-02-15T03:57:45.595Z,6.37
2019-02-15T04:00:13.919Z,7.40
2019-02-15T04:02:42.256Z,8.87
2019-02-15T04:05:10.587Z,9.27
2019-02-15T04:07:38.926Z,8.07
2019-02-15T04:10:08.131Z,8.87
2019-02-15T04:12:36.492Z,6.30
2019-02-15T04:15:05.915Z,8.70
2019-02-15T04:17:34.255Z,7.07
2019-02-15T04:20:02.585Z,7.93
2019-02-15T04:22:30.922Z,7.40
2019-02-15T04:24:59.261Z,7.70
2019-02-15T04:27:27.583Z,11.67
2019-02-15T04:29:55.921Z,8.73
2019-02-15T04:32:24.251Z,8.90
2019-02-15T04:34:52.589Z,7.57
2019-02-15T04:37:20.936Z,11.37
2019-02-15T04:39:49.341Z,7.07
2019-02-15T04:42:17.676Z,8.20
2019-02-15T04:44:46.020Z,9.07
2019-02-15T04:47:14.370Z,9.83
2019-02-15T04:49:42.701Z,9.97
2019-02-15T04:52:11.038Z,7.97
2019-02-15T04:54:39.382Z,12.07
2019-02-15T04:57:07.736Z,9.83
2019-02-15T04:59:36.070Z,7.10
2019-02-15T05:02:04.413Z,6.03
2019-02-15T05:04:32.758Z,7.20
2019-02-15T05:07:01.083Z,7.73
2019-02-15T05:09:29.422Z,7.40
2019-02-15T05:11:57.753Z,7.07
2019-02-15T05:14:26.109Z,8.73
2019-02-15T05:16:54.428Z,10.17
2019-02-15T05:19:22.761Z,6.73
2019-02-15T05:21:51.107Z,9.03
2019-02-15T05:24:19.434Z,7.53
2019-02-15T05:26:47.777Z,8.77
2019-02-15T05:29:16.124Z,7.97
2019-02-15T05:31:44.652Z,6.77
2019-02-15T05:34:12.977Z,7.03
2019-02-15T05:36:41.319Z,7.70
2019-02-15T05:39:11.262Z,8.93
2019-02-15T05:41:39.581Z,6.97
2019-02-15T05:44:07.922Z,7.47
2019-02-15T05:46:36.261Z,6.90
2019-02-15T05:49:04.619Z,8.60
2019-02-15T05:51:32.955Z,8.63
2019-02-15T05:54:02.362Z,7.73
2019-02-15T05:56:30.700Z,11.67
2019-02-15T05:58:59.110Z,7.63
2019-02-15T06:01:28.021Z,8.33
2019-02-15T06:03:56.359Z,8.13
2019-02-15T06:06:26.229Z,6.67
2019-02-15T06:08:54.586Z,9.63
2019-02-15T06:11:22.917Z,8.23
2019-02-15T06:13:51.327Z,8.03
2019-02-15T06:16:19.688Z,7.13
2019-02-15T06:18:48.013Z,12.77
2019-02-15T06:21:16.356Z,7.50
2019-02-15T06:23:44.690Z,8.83
2019-02-15T06:26:13.032Z,9.57
2019-02-15T06:28:41.371Z,6.93
2019-02-15T06:31:09.729Z,10.20
2019-02-15T06:33:38.071Z,8.27
2019-02-15T06:36:06.401Z,9.70
2019-02-15T06:38:36.382Z,10.13
2019-02-15T06:41:06.321Z,9.47
2019-02-15T06:43:34.656Z,7.97
2019-02-15T06:46:03.004Z,8.77
2019-02-15T06:48:32.376Z,9.40
2019-02-15T06:51:00.717Z,11.37
2019-02-15T06:53:29.054Z,9.83
2019-02-15T06:55:58.465Z,7.60
2019-02-15T06:58:26.801Z,11.20
2019-02-15T07:01:07.178Z,8.50
2019-02-15T07:03:40.291Z,7.57
2019-02-15T07:06:08.722Z,7.80
2019-02-15T07:08:37.062Z,7.43
2019-02-15T07:11:05.397Z,9.23
2019-02-15T07:13:33.742Z,11.47
2019-02-15T07:16:02.090Z,8.57
2019-02-15T07:18:30.421Z,8.07
2019-02-15T07:20:58.758Z,8.37
2019-02-15T07:23:27.108Z,11.53
2019-02-15T07:25:55.441Z,9.27
2019-02-15T07:28:24.442Z,10.13
2019-02-15T07:30:52.813Z,10.73
2019-02-15T07:33:21.222Z,8.27
2019-02-15T07:35:50.952Z,9.90
2019-02-15T07:38:19.310Z,13.80
2019-02-15T07:40:47.707Z,9.90
2019-02-15T07:43:16.041Z,8.80
2019-02-15T07:45:44.375Z,9.50
2019-02-15T07:48:12.701Z,9.87
2019-02-15T07:50:41.034Z,9.43
2019-02-15T07:53:09.379Z,8.50
2019-02-15T07:55:37.702Z,9.03
2019-02-15T07:58:06.037Z,9.40
2019-02-15T08:00:34.377Z,6.17
2019-02-15T08:03:02.719Z,9.87
2019-02-15T08:05:31.069Z,10.10
2019-02-15T08:07:59.408Z,11.83
2019-02-15T08:10:29.375Z,11.40
2019-02-15T08:12:57.729Z,7.60
2019-02-15T08:15:26.060Z,7.77
2019-02-15T08:17:54.399Z,8.93
2019-02-15T08:20:22.741Z,9.17
2019-02-15T08:22:51.087Z,6.83
2019-02-15T08:25:19.429Z,7.63
2019-02-15T08:27:47.764Z,9.03
2019-02-15T08:30:16.185Z,7.77
2019-02-15T08:32:44.594Z,7.77
2019-02-15T08:35:12.937Z,10.17
2019-02-15T08:37:41.279Z,9.93
2019-02-15T08:40:10.591Z,9.47
2019-02-15T08:42:39.065Z,12.10
2019-02-15T08:45:11.539Z,10.83
2019-02-15T08:47:40.163Z,10.97
2019-02-15T08:50:09.478Z,11.67
2019-02-15T08:52:37.822Z,11.03
2019-02-15T08:55:07.511Z,10.40
2019-02-15T08:57:35.910Z,10.73
2019-02-15T09:00:05.720Z,9.43
2019-02-15T09:02:34.053Z,9.57
2019-02-15T09:05:02.453Z,9.03
2019-02-15T09:07:33.949Z,9.23
2019-02-15T09:10:02.294Z,10.70
2019-02-15T09:12:30.706Z,11.63
2019-02-15T09:14:59.051Z,17.30
2019-02-15T09:17:27.451Z,11.07
2019-02-15T09:20:00.204Z,13.70
2019-02-15T09:22:35.424Z,17.57
2019-02-15T09:25:02.911Z,11.00
2019-02-15T09:27:36.531Z,11.23
2019-02-15T09:30:06.997Z,8.83
2019-02-15T09:32:36.985Z,8.43
2019-02-15T09:35:08.105Z,10.03
2019-02-15T09:37:38.738Z,9.33
2019-02-15T09:40:12.827Z,8.77
2019-02-15T09:43:02.314Z,11.00
2019-02-15T09:45:35.466Z,9.53
2019-02-15T09:48:07.342Z,12.43
2019-02-15T09:50:37.042Z,9.67
2019-02-15T09:53:11.379Z,9.63
2019-02-15T09:55:48.265Z,9.00
2019-02-15T09:58:23.174Z,10.23
2019-02-15T10:00:56.552Z,9.03
2019-02-15T10:03:39.816Z,9.50
2019-02-15T10:06:14.104Z,11.07
2019-02-15T10:08:49.465Z,12.50
2019-02-15T10:11:36.273Z,9.57
2019-02-15T10:14:03.042Z,10.20
2019-02-15T10:16:31.504Z,9.83
2019-02-15T10:19:00.150Z,13.13
2019-02-15T10:21:30.912Z,10.23
2019-02-15T10:24:04.591Z,9.83
2019-02-15T10:26:33.674Z,11.00
2019-02-15T10:29:02.273Z,7.17
2019-02-15T10:31:30.998Z,8.20
2019-02-15T10:34:04.386Z,12.67
2019-02-15T10:36:33.803Z,10.43
2019-02-15T10:39:05.203Z,8.67
2019-02-15T10:41:34.894Z,10.87
2019-02-15T10:44:05.322Z,9.73
2019-02-15T10:46:37.919Z,11.23
2019-02-15T10:49:05.841Z,8.53
2019-02-15T10:51:34.169Z,8.50
2019-02-15T10:54:02.500Z,10.10
2019-02-15T10:56:30.847Z,9.47
2019-02-15T10:58:59.167Z,11.13
2019-02-15T11:01:27.513Z,10.70
2019-02-15T11:03:55.946Z,8.63
2019-02-15T11:06:24.308Z,9.97
2019-02-15T11:08:52.633Z,10.50
2019-02-15T11:11:20.973Z,10.03
2019-02-15T11:13:49.311Z,8.43
2019-02-15T11:16:20.338Z,10.30
2019-02-15T11:18:52.474Z,8.80
2019-02-15T11:21:24.838Z,8.67
2019-02-15T11:23:54.837Z,7.57
2019-02-15T11:26:24.986Z,9.77
2019-02-15T11:28:53.477Z,9.30
2019-02-15T11:31:21.822Z,8.87
2019-02-15T11:33:50.167Z,10.07
2019-02-15T11:36:18.758Z,11.83
2019-02-15T11:38:47.090Z,9.23
2019-02-15T11:41:19.350Z,9.53
2019-02-15T11:43:52.830Z,11.00
2019-02-15T11:46:21.169Z,8.23
2019-02-15T11:48:49.510Z,8.90
2019-02-15T11:51:20.249Z,8.97
2019-02-15T11:53:49.850Z,8.73
2019-02-15T11:56:21.019Z,7.83
2019-02-15T11:58:49.334Z,9.37
2019-02-15T12:01:24.540Z,7.00
2019-02-15T12:03:55.744Z,7.07
2019-02-15T12:06:29.298Z,8.47
2019-02-15T12:08:59.266Z,7.93
2019-02-15T12:11:27.586Z,11.27
2019-02-15T12:13:55.926Z,10.97
2019-02-15T12:16:25.712Z,9.57
2019-02-15T12:19:16.448Z,7.97
2019-02-15T12:21:50.819Z,8.43
2019-02-15T12:24:21.371Z,9.47
2019-02-15T12:27:07.125Z,10.00
2019-02-15T12:29:36.819Z,8.57
2019-02-15T12:32:21.385Z,9.10
2019-02-15T12:35:50.634Z,8.47
2019-02-15T12:37:42.557Z,7.90
2019-02-15T12:40:13.265Z,6.97
2019-02-15T12:42:41.598Z,7.73
2019-02-15T12:45:16.671Z,9.87
2019-02-15T12:47:49.236Z,10.80
2019-02-15T12:50:25.871Z,9.50
2019-02-15T12:52:55.524Z,11.63
2019-02-15T12:55:29.912Z,7.60
2019-02-15T12:57:58.284Z,8.30
2019-02-15T13:00:34.714Z,7.40
2019-02-15T13:03:07.177Z,6.47
2019-02-15T13:05:41.379Z,12.03
2019-02-15T13:08:10.982Z,10.40
2019-02-15T13:10:43.325Z,8.50
2019-02-15T13:13:14.569Z,9.57
2019-02-15T13:15:46.433Z,9.83
2019-02-15T13:18:20.200Z,10.27
2019-02-15T13:20:58.327Z,8.67
2019-02-15T13:23:29.221Z,7.10
2019-02-15T13:26:07.970Z,6.47
2019-02-15T13:28:31.628Z,7.40
2019-02-15T13:31:04.929Z,10.17
2019-02-15T13:33:34.616Z,7.17
2019-02-15T13:36:06.811Z,9.50
2019-02-15T13:38:35.740Z,8.53
2019-02-15T13:41:05.303Z,9.20
2019-02-15T13:43:39.675Z,8.73
2019-02-15T13:46:11.072Z,9.27
2019-02-15T13:48:40.378Z,6.30
2019-02-15T13:51:14.518Z,7.37
2019-02-15T13:53:50.397Z,6.17
2019-02-15T13:56:34.141Z,8.63
2019-02-15T13:59:03.267Z,8.43
2019-02-15T14:01:31.606Z,6.67
2019-02-15T14:03:59.940Z,10.43
2019-02-15T14:06:28.283Z,8.00
2019-02-15T14:08:56.610Z,6.73
2019-02-15T14:11:26.025Z,6.10
2019-02-15T14:13:54.358Z,6.90
2019-02-15T14:16:22.704Z,6.97
2019-02-15T14:18:51.679Z,12.90
2019-02-15T14:21:20.042Z,8.30
2019-02-15T14:23:48.383Z,6.20
2019-02-15T14:26:16.719Z,8.20
2019-02-15T14:28:45.049Z,8.60
2019-02-15T14:31:13.386Z,8.70
2019-02-15T14:33:43.397Z,6.77
2019-02-15T14:36:11.738Z,8.27
2019-02-15T14:38:44.094Z,7.57
2019-02-15T14:41:12.462Z,10.47
2019-02-15T14:43:41.622Z,8.30
2019-02-15T14:49:03.236Z,6.90
2019-02-15T14:51:32.750Z,11.17
2019-02-15T14:54:01.102Z,13.10
2019-02-15T14:56:30.846Z,9.33
2019-02-15T14:59:01.311Z,8.10
2019-02-15T15:01:29.659Z,7.03
2019-02-15T15:03:58.001Z,10.73
2019-02-15T15:06:26.340Z,9.07
2019-02-15T15:08:56.764Z,6.90
2019-02-15T15:11:25.088Z,8.17
2019-02-15T15:13:53.426Z,9.10
2019-02-15T15:16:21.789Z,7.63
2019-02-15T15:18:50.125Z,7.37
2019-02-15T15:21:18.477Z,7.90
2019-02-15T15:23:48.464Z,7.90
2019-02-15T15:26:17.082Z,7.00
2019-02-15T15:28:47.754Z,6.43
2019-02-15T15:31:18.911Z,7.33
2019-02-15T15:33:48.220Z,6.67
2019-02-15T15:36:18.461Z,5.47
2019-02-15T15:38:48.676Z,5.87
2019-02-15T15:41:17.060Z,6.23
2019-02-15T15:43:45.396Z,5.13
2019-02-15T15:46:13.748Z,8.13
2019-02-15T15:48:42.073Z,7.07
2019-02-15T15:51:10.401Z,8.33
2019-02-15T15:53:38.812Z,6.63
2019-02-15T15:56:13.803Z,8.57
2019-02-15T15:58:43.099Z,7.70
2019-02-15T16:01:13.899Z,5.87
2019-02-15T16:03:45.536Z,6.93
2019-02-15T16:06:24.052Z,5.87
2019-02-15T16:08:48.771Z,5.23
2019-02-15T16:11:20.148Z,8.80
2019-02-15T16:13:53.361Z,11.60
2019-02-15T16:16:21.703Z,7.03
2019-02-15T16:18:50.032Z,5.93
2019-02-15T16:21:18.363Z,7.83
2019-02-15T16:23:46.701Z,7.30
2019-02-15T16:26:15.068Z,9.00
2019-02-15T16:28:43.460Z,14.93
2019-02-15T16:31:11.793Z,6.87
2019-02-15T16:33:40.138Z,7.80
2019-02-15T16:36:08.460Z,5.30
2019-02-15T16:38:37.801Z,6.23
2019-02-15T16:41:06.126Z,7.30
2019-02-15T16:43:34.529Z,7.77
2019-02-15T16:46:02.885Z,7.43
2019-02-15T16:48:31.226Z,7.03
2019-02-15T16:50:59.556Z,7.53
2019-02-15T16:56:37.315Z,10.13
2019-02-15T16:59:13.047Z,13.97
2019-02-15T17:01:41.851Z,13.43
2019-02-15T17:04:10.202Z,17.63
2019-02-15T17:06:43.290Z,13.60
2019-02-15T17:09:19.783Z,14.03
2019-02-15T17:11:58.051Z,9.20
2019-02-15T17:14:29.118Z,9.43
2019-02-15T17:16:58.276Z,14.57
2019-02-15T17:19:26.613Z,25.03
2019-02-15T17:21:54.966Z,44.33
2019-02-15T17:24:23.334Z,21.30
2019-02-15T17:26:51.692Z,28.57
2019-02-15T17:29:20.032Z,20.13
2019-02-15T17:31:48.393Z,18.97
2019-02-15T17:34:16.802Z,11.03
2019-02-15T17:36:45.137Z,11.93
2019-02-15T17:39:13.485Z,11.67
2019-02-15T17:41:41.818Z,10.63
2019-02-15T17:44:10.626Z,9.83
2019-02-15T17:46:38.962Z,8.27
2019-02-15T17:49:07.362Z,11.87
2019-02-15T17:51:36.934Z,11.43
2019-02-15T17:54:06.901Z,13.67
2019-02-15T17:56:36.539Z,9.30
2019-02-15T17:59:04.941Z,9.27
2019-02-15T18:01:34.529Z,11.63
2019-02-15T18:04:03.770Z,10.90
2019-02-15T18:06:32.165Z,11.20
2019-02-15T18:09:02.355Z,12.13
2019-02-15T18:11:32.402Z,24.47
2019-02-15T18:14:00.965Z,16.17
2019-02-15T18:16:29.388Z,17.57
2019-02-15T18:18:57.721Z,14.60
2019-02-15T18:21:26.071Z,12.73
2019-02-15T18:23:54.519Z,13.00
2019-02-15T18:26:22.898Z,13.50
2019-02-15T18:28:51.537Z,11.73
2019-02-15T18:31:19.884Z,13.67
2019-02-15T18:33:48.221Z,15.63
2019-02-15T18:36:16.589Z,10.70
2019-02-15T18:38:44.962Z,13.10
2019-02-15T18:41:13.922Z,11.00
2019-02-15T18:43:42.471Z,14.70
2019-02-15T18:46:10.829Z,10.80
2019-02-15T18:48:39.188Z,14.23
2019-02-15T18:51:07.865Z,12.33
2019-02-15T18:53:36.208Z,13.83
2019-02-15T18:56:04.567Z,13.37
2019-02-15T18:58:32.901Z,12.23
2019-02-15T19:01:01.254Z,12.60
2019-02-15T19:03:30.861Z,13.50
2019-02-15T19:05:59.304Z,15.53
2019-02-15T19:08:27.663Z,18.17
2019-02-15T19:10:56.016Z,15.30
2019-02-15T19:13:24.367Z,15.57
2019-02-15T19:15:52.721Z,13.03
2019-02-15T19:18:21.066Z,13.97
2019-02-15T19:20:49.416Z,13.60
2019-02-15T19:23:17.756Z,13.80
2019-02-15T19:25:46.093Z,13.50
2019-02-15T19:28:14.451Z,18.37
2019-02-15T19:30:42.802Z,20.07
2019-02-15T19:33:11.477Z,15.27
2019-02-15T19:35:39.830Z,14.70
2019-02-15T19:38:08.946Z,13.30
2019-02-15T19:40:38.140Z,15.20
2019-02-15T19:43:09.228Z,16.43
2019-02-15T19:45:37.567Z,13.67
2019-02-15T19:48:05.916Z,13.53
2019-02-15T19:50:34.261Z,12.90
2019-02-15T19:53:03.569Z,12.87
2019-02-15T19:55:31.995Z,14.93
2019-02-15T19:58:00.336Z,14.50
2019-02-15T20:00:28.694Z,14.20
2019-02-15T20:02:57.295Z,14.50
2019-02-15T20:05:26.885Z,17.43
2019-02-15T20:07:55.566Z,45.07
2019-02-15T20:10:24.298Z,31.53
2019-02-15T20:12:52.866Z,29.23
2019-02-15T20:15:21.796Z,21.70
2019-02-15T20:17:50.161Z,17.97
2019-02-15T20:20:18.568Z,14.47
2019-02-15T20:22:46.925Z,15.40
2019-02-15T20:25:16.062Z,17.37
2019-02-15T20:27:45.177Z,14.87
2019-02-15T20:30:20.622Z,11.57
2019-02-15T20:32:48.953Z,16.57
2019-02-15T20:35:17.377Z,12.47
2019-02-15T20:37:45.725Z,14.13
2019-02-15T20:40:14.064Z,15.03
2019-02-15T20:42:42.418Z,14.53
2019-02-15T20:45:12.138Z,16.00
2019-02-15T20:47:41.560Z,14.93
2019-02-15T20:50:10.898Z,15.60
2019-02-15T20:52:39.244Z,18.60
2019-02-15T20:55:08.961Z,18.07
2019-02-15T20:57:37.322Z,20.50
2019-02-15T21:00:10.023Z,19.43
2019-02-15T21:02:38.621Z,18.13
2019-02-15T21:05:08.037Z,20.00
2019-02-15T21:07:36.399Z,18.40
2019-02-15T21:10:09.143Z,18.27
2019-02-15T21:12:39.526Z,17.07
2019-02-15T21:15:09.171Z,21.83
2019-02-15T21:17:37.508Z,20.70
2019-02-15T21:20:08.286Z,16.67
2019-02-15T21:22:37.021Z,19.07
2019-02-15T21:25:06.738Z,20.23
2019-02-15T21:27:35.095Z,14.83
2019-02-15T21:30:04.845Z,18.03
2019-02-15T21:32:34.780Z,17.93
2019-02-15T21:35:03.624Z,17.43
2019-02-15T21:37:31.960Z,16.07
2019-02-15T21:40:00.321Z,14.60
2019-02-15T21:42:28.725Z,13.90
2019-02-15T21:44:57.074Z,14.93
2019-02-15T21:47:25.417Z,16.43
2019-02-15T21:49:55.839Z,15.27
2019-02-15T21:52:24.198Z,15.93
2019-02-15T21:54:52.547Z,20.27
2019-02-15T21:57:21.062Z,17.10
2019-02-15T21:59:49.697Z,15.53
2019-02-15T22:02:18.311Z,15.40
2019-02-15T22:04:46.661Z,17.67
2019-02-15T22:07:15.033Z,29.23
2019-02-15T22:09:43.385Z,24.00
2019-02-15T22:12:11.850Z,16.63
2019-02-15T22:14:40.315Z,16.43
2019-02-15T22:17:08.711Z,16.90
2019-02-15T22:19:37.076Z,16.07
2019-02-15T22:22:05.453Z,16.07
2019-02-15T22:24:33.809Z,15.27
2019-02-15T22:27:02.301Z,14.37
2019-02-15T22:29:30.782Z,15.13
2019-02-15T22:31:59.436Z,16.43
2019-02-15T22:34:27.793Z,14.40
2019-02-15T22:36:56.137Z,15.77
2019-02-15T22:39:24.703Z,20.43
2019-02-15T22:41:53.054Z,16.97
2019-02-15T22:44:21.397Z,16.20
2019-02-15T22:46:49.746Z,14.87
2019-02-15T22:49:18.453Z,14.27
2019-02-15T22:51:46.824Z,20.73
2019-02-15T22:54:15.167Z,17.20
2019-02-15T22:56:43.691Z,18.63
2019-02-15T22:59:12.250Z,15.03
2019-02-15T23:01:40.606Z,17.17
2019-02-15T23:04:09.390Z,14.60
2019-02-15T23:06:39.864Z,15.40
2019-02-15T23:09:09.856Z,14.00
2019-02-15T23:11:40.057Z,16.23
2019-02-15T23:14:08.453Z,17.20
2019-02-15T23:16:36.810Z,17.87
2019-02-15T23:19:05.241Z,14.17
2019-02-15T23:21:33.646Z,12.70
2019-02-15T23:24:02.110Z,12.53
2019-02-15T23:26:30.628Z,15.77
2019-02-15T23:28:59.048Z,10.60
2019-02-15T23:31:27.389Z,17.70
2019-02-15T23:33:55.763Z,11.73
2019-02-15T23:36:24.120Z,14.87
2019-02-15T23:38:52.675Z,11.60
2019-02-15T23:41:22.125Z,13.57
2019-02-15T23:43:50.620Z,12.87
2019-02-15T23:46:19.185Z,14.00
2019-02-15T23:48:47.547Z,13.13
2019-02-15T23:51:15.944Z,14.17
2019-02-15T23:53:44.293Z,9.97
2019-02-15T23:56:12.634Z,13.17
2019-02-15T23:58:41.070Z,10.77
